sensor_id;sensor_type;location;lat;lon;timestamp;P1;durP1;ratioP1;P2;durP2;ratioP2
77430;SDS011;66498;48.564;19.272;2023-03-13T00:00:59;16.10;;;8.98;;
77430;SDS011;66498;48.564;19.272;2023-03-13T00:03:27;17.25;;;10.15;;
77430;SDS011;66498;48.564;19.272;2023-03-13T00:05:55;19.85;;;10.27;;
77430;SDS011;66498;48.564;19.272;2023-03-13T00:08:21;17.77;;;10.70;;
77430;SDS011;66498;48.564;19.272;2023-03-13T00:10:46;14.55;;;8.88;;
77430;SDS011;66498;48.564;19.272;2023-03-13T00:13:12;12.88;;;7.88;;
77430;SDS011;66498;48.564;19.272;2023-03-13T00:15:38;15.68;;;9.00;;
77430;SDS011;66498;48.564;19.272;2023-03-13T00:18:03;17.13;;;9.10;;
77430;SDS011;66498;48.564;19.272;2023-03-13T00:20:29;16.35;;;9.68;;
77430;SDS011;66498;48.564;19.272;2023-03-13T00:22:54;13.75;;;8.15;;
77430;SDS011;66498;48.564;19.272;2023-03-13T00:25:20;16.48;;;8.82;;
77430;SDS011;66498;48.564;19.272;2023-03-13T00:27:46;15.45;;;8.80;;
77430;SDS011;66498;48.564;19.272;2023-03-13T00:30:12;14.43;;;8.55;;
77430;SDS011;66498;48.564;19.272;2023-03-13T00:32:42;15.43;;;8.63;;
77430;SDS011;66498;48.564;19.272;2023-03-13T00:35:11;14.98;;;9.27;;
77430;SDS011;66498;48.564;19.272;2023-03-13T00:37:38;16.55;;;9.45;;
77430;SDS011;66498;48.564;19.272;2023-03-13T00:40:04;15.32;;;9.25;;
77430;SDS011;66498;48.564;19.272;2023-03-13T00:42:31;15.23;;;8.73;;
77430;SDS011;66498;48.564;19.272;2023-03-13T00:44:58;15.23;;;9.32;;
77430;SDS011;66498;48.564;19.272;2023-03-13T00:47:24;14.35;;;8.57;;
77430;SDS011;66498;48.564;19.272;2023-03-13T00:49:50;15.43;;;8.68;;
77430;SDS011;66498;48.564;19.272;2023-03-13T00:52:16;15.18;;;9.32;;
77430;SDS011;66498;48.564;19.272;2023-03-13T00:54:43;14.00;;;9.00;;
77430;SDS011;66498;48.564;19.272;2023-03-13T00:57:09;14.80;;;8.88;;
77430;SDS011;66498;48.564;19.272;2023-03-13T00:59:35;12.63;;;9.15;;
77430;SDS011;66498;48.564;19.272;2023-03-13T01:02:00;18.67;;;11.48;;
77430;SDS011;66498;48.564;19.272;2023-03-13T01:04:26;17.05;;;10.77;;
77430;SDS011;66498;48.564;19.272;2023-03-13T01:06:52;16.48;;;10.30;;
77430;SDS011;66498;48.564;19.272;2023-03-13T01:09:17;17.95;;;10.85;;
77430;SDS011;66498;48.564;19.272;2023-03-13T01:11:44;16.02;;;9.75;;
77430;SDS011;66498;48.564;19.272;2023-03-13T01:14:17;14.48;;;9.82;;
77430;SDS011;66498;48.564;19.272;2023-03-13T01:16:44;17.70;;;9.95;;
77430;SDS011;66498;48.564;19.272;2023-03-13T01:19:13;14.65;;;9.80;;
77430;SDS011;66498;48.564;19.272;2023-03-13T01:21:40;16.05;;;9.60;;
77430;SDS011;66498;48.564;19.272;2023-03-13T01:24:07;16.60;;;10.68;;
77430;SDS011;66498;48.564;19.272;2023-03-13T01:26:33;17.15;;;9.68;;
77430;SDS011;66498;48.564;19.272;2023-03-13T01:28:59;14.00;;;9.80;;
77430;SDS011;66498;48.564;19.272;2023-03-13T01:31:29;16.65;;;9.65;;
77430;SDS011;66498;48.564;19.272;2023-03-13T01:33:57;15.38;;;10.23;;
77430;SDS011;66498;48.564;19.272;2023-03-13T01:36:24;15.13;;;9.95;;
77430;SDS011;66498;48.564;19.272;2023-03-13T01:38:51;14.88;;;9.68;;
77430;SDS011;66498;48.564;19.272;2023-03-13T01:41:18;16.23;;;10.63;;
77430;SDS011;66498;48.564;19.272;2023-03-13T01:43:45;14.98;;;10.30;;
77430;SDS011;66498;48.564;19.272;2023-03-13T01:48:48;15.02;;;10.40;;
77430;SDS011;66498;48.564;19.272;2023-03-13T01:51:23;17.52;;;10.85;;
77430;SDS011;66498;48.564;19.272;2023-03-13T01:54:07;14.93;;;9.63;;
77430;SDS011;66498;48.564;19.272;2023-03-13T01:59:14;14.75;;;9.68;;
77430;SDS011;66498;48.564;19.272;2023-03-13T02:01:44;15.88;;;9.68;;
77430;SDS011;66498;48.564;19.272;2023-03-13T02:04:12;15.45;;;10.32;;
77430;SDS011;66498;48.564;19.272;2023-03-13T02:06:40;14.50;;;10.15;;
77430;SDS011;66498;48.564;19.272;2023-03-13T02:09:11;15.07;;;9.80;;
77430;SDS011;66498;48.564;19.272;2023-03-13T02:11:48;15.07;;;10.02;;
77430;SDS011;66498;48.564;19.272;2023-03-13T02:14:18;16.45;;;10.32;;
77430;SDS011;66498;48.564;19.272;2023-03-13T02:16:45;16.05;;;10.18;;
77430;SDS011;66498;48.564;19.272;2023-03-13T02:19:22;16.25;;;10.13;;
77430;SDS011;66498;48.564;19.272;2023-03-13T02:24:39;15.93;;;10.10;;
77430;SDS011;66498;48.564;19.272;2023-03-13T02:27:09;17.25;;;10.52;;
77430;SDS011;66498;48.564;19.272;2023-03-13T02:29:35;14.80;;;10.00;;
77430;SDS011;66498;48.564;19.272;2023-03-13T02:32:00;15.73;;;9.57;;
77430;SDS011;66498;48.564;19.272;2023-03-13T02:34:27;14.07;;;9.98;;
77430;SDS011;66498;48.564;19.272;2023-03-13T02:36:58;15.48;;;9.73;;
77430;SDS011;66498;48.564;19.272;2023-03-13T02:39:24;14.85;;;9.68;;
77430;SDS011;66498;48.564;19.272;2023-03-13T02:41:52;19.45;;;10.40;;
77430;SDS011;66498;48.564;19.272;2023-03-13T02:44:18;14.48;;;10.40;;
77430;SDS011;66498;48.564;19.272;2023-03-13T02:46:45;19.27;;;12.18;;
77430;SDS011;66498;48.564;19.272;2023-03-13T02:49:32;19.42;;;12.13;;
77430;SDS011;66498;48.564;19.272;2023-03-13T02:54:57;18.45;;;11.07;;
77430;SDS011;66498;48.564;19.272;2023-03-13T02:57:26;22.45;;;11.90;;
77430;SDS011;66498;48.564;19.272;2023-03-13T02:59:53;20.33;;;11.13;;
77430;SDS011;66498;48.564;19.272;2023-03-13T03:02:19;16.92;;;11.35;;
77430;SDS011;66498;48.564;19.272;2023-03-13T03:04:44;17.55;;;11.68;;
77430;SDS011;66498;48.564;19.272;2023-03-13T03:07:11;19.42;;;12.50;;
77430;SDS011;66498;48.564;19.272;2023-03-13T03:09:36;19.05;;;12.18;;
77430;SDS011;66498;48.564;19.272;2023-03-13T03:12:02;17.50;;;11.73;;
77430;SDS011;66498;48.564;19.272;2023-03-13T03:14:27;19.63;;;12.05;;
77430;SDS011;66498;48.564;19.272;2023-03-13T03:16:53;21.05;;;12.27;;
77430;SDS011;66498;48.564;19.272;2023-03-13T03:19:19;23.98;;;13.75;;
77430;SDS011;66498;48.564;19.272;2023-03-13T03:21:44;22.90;;;14.15;;
77430;SDS011;66498;48.564;19.272;2023-03-13T03:24:10;20.50;;;13.70;;
77430;SDS011;66498;48.564;19.272;2023-03-13T03:26:35;23.05;;;14.10;;
77430;SDS011;66498;48.564;19.272;2023-03-13T03:29:01;22.90;;;14.50;;
77430;SDS011;66498;48.564;19.272;2023-03-13T03:31:26;24.80;;;14.90;;
77430;SDS011;66498;48.564;19.272;2023-03-13T03:33:52;23.88;;;14.57;;
77430;SDS011;66498;48.564;19.272;2023-03-13T03:36:18;24.83;;;14.63;;
77430;SDS011;66498;48.564;19.272;2023-03-13T03:38:46;22.85;;;14.18;;
77430;SDS011;66498;48.564;19.272;2023-03-13T03:41:12;23.85;;;13.52;;
77430;SDS011;66498;48.564;19.272;2023-03-13T03:43:38;22.70;;;14.25;;
77430;SDS011;66498;48.564;19.272;2023-03-13T03:46:04;20.98;;;13.35;;
77430;SDS011;66498;48.564;19.272;2023-03-13T03:48:30;22.95;;;13.93;;
77430;SDS011;66498;48.564;19.272;2023-03-13T03:50:56;19.63;;;12.40;;
77430;SDS011;66498;48.564;19.272;2023-03-13T03:53:22;22.45;;;13.18;;
77430;SDS011;66498;48.564;19.272;2023-03-13T03:55:48;21.63;;;13.38;;
77430;SDS011;66498;48.564;19.272;2023-03-13T03:58:13;22.60;;;14.40;;
77430;SDS011;66498;48.564;19.272;2023-03-13T04:00:41;22.02;;;13.43;;
77430;SDS011;66498;48.564;19.272;2023-03-13T04:03:07;18.85;;;12.45;;
77430;SDS011;66498;48.564;19.272;2023-03-13T04:05:33;20.83;;;13.45;;
77430;SDS011;66498;48.564;19.272;2023-03-13T04:07:59;25.17;;;13.23;;
77430;SDS011;66498;48.564;19.272;2023-03-13T04:10:25;22.63;;;12.88;;
77430;SDS011;66498;48.564;19.272;2023-03-13T04:12:51;20.23;;;12.85;;
77430;SDS011;66498;48.564;19.272;2023-03-13T04:15:16;21.30;;;12.80;;
77430;SDS011;66498;48.564;19.272;2023-03-13T04:17:43;19.83;;;12.50;;
77430;SDS011;66498;48.564;19.272;2023-03-13T04:20:09;18.35;;;12.40;;
77430;SDS011;66498;48.564;19.272;2023-03-13T04:22:39;19.30;;;11.77;;
77430;SDS011;66498;48.564;19.272;2023-03-13T04:25:05;18.48;;;12.07;;
77430;SDS011;66498;48.564;19.272;2023-03-13T04:27:32;16.90;;;10.57;;
77430;SDS011;66498;48.564;19.272;2023-03-13T04:29:59;16.08;;;10.25;;
77430;SDS011;66498;48.564;19.272;2023-03-13T04:32:24;15.35;;;9.98;;
77430;SDS011;66498;48.564;19.272;2023-03-13T04:34:50;16.23;;;10.43;;
77430;SDS011;66498;48.564;19.272;2023-03-13T04:37:17;17.58;;;10.93;;
77430;SDS011;66498;48.564;19.272;2023-03-13T04:39:43;19.35;;;12.57;;
77430;SDS011;66498;48.564;19.272;2023-03-13T04:42:09;22.45;;;13.88;;
77430;SDS011;66498;48.564;19.272;2023-03-13T04:44:35;23.10;;;13.57;;
77430;SDS011;66498;48.564;19.272;2023-03-13T04:47:01;23.27;;;14.55;;
77430;SDS011;66498;48.564;19.272;2023-03-13T04:49:27;21.95;;;13.88;;
77430;SDS011;66498;48.564;19.272;2023-03-13T04:51:54;25.08;;;14.32;;
77430;SDS011;66498;48.564;19.272;2023-03-13T04:54:20;24.48;;;14.50;;
77430;SDS011;66498;48.564;19.272;2023-03-13T04:56:46;22.90;;;14.70;;
77430;SDS011;66498;48.564;19.272;2023-03-13T04:59:12;20.73;;;12.93;;
77430;SDS011;66498;48.564;19.272;2023-03-13T05:01:38;20.05;;;11.35;;
77430;SDS011;66498;48.564;19.272;2023-03-13T05:04:04;17.95;;;10.70;;
77430;SDS011;66498;48.564;19.272;2023-03-13T05:06:30;17.13;;;11.55;;
77430;SDS011;66498;48.564;19.272;2023-03-13T05:08:55;19.38;;;10.63;;
77430;SDS011;66498;48.564;19.272;2023-03-13T05:11:21;16.00;;;10.77;;
77430;SDS011;66498;48.564;19.272;2023-03-13T05:13:48;18.08;;;10.85;;
77430;SDS011;66498;48.564;19.272;2023-03-13T05:16:13;17.88;;;10.90;;
77430;SDS011;66498;48.564;19.272;2023-03-13T05:18:39;16.17;;;10.82;;
77430;SDS011;66498;48.564;19.272;2023-03-13T05:21:05;16.67;;;11.52;;
77430;SDS011;66498;48.564;19.272;2023-03-13T05:23:31;22.83;;;12.85;;
77430;SDS011;66498;48.564;19.272;2023-03-13T05:25:56;24.50;;;12.77;;
77430;SDS011;66498;48.564;19.272;2023-03-13T05:28:22;29.92;;;15.38;;
77430;SDS011;66498;48.564;19.272;2023-03-13T05:30:48;23.30;;;13.15;;
77430;SDS011;66498;48.564;19.272;2023-03-13T05:33:14;27.52;;;14.68;;
77430;SDS011;66498;48.564;19.272;2023-03-13T05:35:40;36.42;;;17.55;;
77430;SDS011;66498;48.564;19.272;2023-03-13T05:38:06;28.80;;;15.23;;
77430;SDS011;66498;48.564;19.272;2023-03-13T05:40:31;30.80;;;14.30;;
77430;SDS011;66498;48.564;19.272;2023-03-13T05:42:57;25.50;;;14.25;;
77430;SDS011;66498;48.564;19.272;2023-03-13T05:45:23;29.02;;;15.02;;
77430;SDS011;66498;48.564;19.272;2023-03-13T05:47:49;20.83;;;12.40;;
77430;SDS011;66498;48.564;19.272;2023-03-13T05:50:15;18.27;;;11.93;;
77430;SDS011;66498;48.564;19.272;2023-03-13T05:52:41;16.35;;;11.75;;
77430;SDS011;66498;48.564;19.272;2023-03-13T05:55:07;20.00;;;12.48;;
77430;SDS011;66498;48.564;19.272;2023-03-13T05:57:33;19.83;;;11.98;;
77430;SDS011;66498;48.564;19.272;2023-03-13T05:59:58;22.98;;;13.85;;
77430;SDS011;66498;48.564;19.272;2023-03-13T06:02:24;20.55;;;13.90;;
77430;SDS011;66498;48.564;19.272;2023-03-13T06:04:50;20.60;;;13.77;;
77430;SDS011;66498;48.564;19.272;2023-03-13T06:07:15;19.35;;;12.98;;
77430;SDS011;66498;48.564;19.272;2023-03-13T06:09:41;20.38;;;13.20;;
77430;SDS011;66498;48.564;19.272;2023-03-13T06:12:07;21.75;;;14.13;;
77430;SDS011;66498;48.564;19.272;2023-03-13T06:14:33;22.08;;;13.52;;
77430;SDS011;66498;48.564;19.272;2023-03-13T06:16:59;19.77;;;13.82;;
77430;SDS011;66498;48.564;19.272;2023-03-13T06:19:24;20.00;;;13.77;;
77430;SDS011;66498;48.564;19.272;2023-03-13T06:21:50;22.42;;;13.02;;
77430;SDS011;66498;48.564;19.272;2023-03-13T06:24:20;22.40;;;13.77;;
77430;SDS011;66498;48.564;19.272;2023-03-13T06:26:47;19.63;;;14.07;;
77430;SDS011;66498;48.564;19.272;2023-03-13T06:29:14;20.83;;;14.18;;
77430;SDS011;66498;48.564;19.272;2023-03-13T06:31:39;20.98;;;13.88;;
77430;SDS011;66498;48.564;19.272;2023-03-13T06:34:05;17.88;;;12.60;;
77430;SDS011;66498;48.564;19.272;2023-03-13T06:36:30;18.30;;;12.70;;
77430;SDS011;66498;48.564;19.272;2023-03-13T06:38:56;18.90;;;12.50;;
77430;SDS011;66498;48.564;19.272;2023-03-13T06:41:22;23.13;;;14.32;;
77430;SDS011;66498;48.564;19.272;2023-03-13T06:43:48;19.10;;;11.77;;
77430;SDS011;66498;48.564;19.272;2023-03-13T06:46:21;22.95;;;15.43;;
77430;SDS011;66498;48.564;19.272;2023-03-13T06:48:48;30.80;;;19.20;;
77430;SDS011;66498;48.564;19.272;2023-03-13T06:51:15;32.60;;;21.10;;
77430;SDS011;66498;48.564;19.272;2023-03-13T06:53:43;23.48;;;14.45;;
77430;SDS011;66498;48.564;19.272;2023-03-13T06:56:12;23.85;;;15.13;;
77430;SDS011;66498;48.564;19.272;2023-03-13T06:58:38;21.13;;;14.00;;
77430;SDS011;66498;48.564;19.272;2023-03-13T07:01:08;25.48;;;14.98;;
77430;SDS011;66498;48.564;19.272;2023-03-13T07:03:41;25.35;;;16.00;;
77430;SDS011;66498;48.564;19.272;2023-03-13T07:06:08;28.23;;;16.85;;
77430;SDS011;66498;48.564;19.272;2023-03-13T07:08:40;17.98;;;12.10;;
77430;SDS011;66498;48.564;19.272;2023-03-13T07:11:28;20.08;;;13.63;;
77430;SDS011;66498;48.564;19.272;2023-03-13T07:14:16;21.35;;;13.50;;
77430;SDS011;66498;48.564;19.272;2023-03-13T07:16:43;20.90;;;11.60;;
77430;SDS011;66498;48.564;19.272;2023-03-13T07:19:12;19.88;;;12.15;;
77430;SDS011;66498;48.564;19.272;2023-03-13T07:21:42;17.92;;;11.30;;
77430;SDS011;66498;48.564;19.272;2023-03-13T07:24:08;17.45;;;11.40;;
77430;SDS011;66498;48.564;19.272;2023-03-13T07:26:34;18.98;;;11.07;;
77430;SDS011;66498;48.564;19.272;2023-03-13T07:29:02;23.70;;;13.32;;
77430;SDS011;66498;48.564;19.272;2023-03-13T07:31:30;22.73;;;12.00;;
77430;SDS011;66498;48.564;19.272;2023-03-13T07:33:58;18.02;;;11.88;;
77430;SDS011;66498;48.564;19.272;2023-03-13T07:36:24;20.90;;;11.73;;
77430;SDS011;66498;48.564;19.272;2023-03-13T07:38:51;21.27;;;12.10;;
77430;SDS011;66498;48.564;19.272;2023-03-13T07:41:21;20.15;;;11.52;;
77430;SDS011;66498;48.564;19.272;2023-03-13T07:43:50;17.55;;;11.77;;
77430;SDS011;66498;48.564;19.272;2023-03-13T07:46:16;18.17;;;11.73;;
77430;SDS011;66498;48.564;19.272;2023-03-13T07:48:45;20.88;;;11.57;;
77430;SDS011;66498;48.564;19.272;2023-03-13T07:53:41;18.08;;;11.13;;
77430;SDS011;66498;48.564;19.272;2023-03-13T07:56:09;18.55;;;11.77;;
77430;SDS011;66498;48.564;19.272;2023-03-13T07:58:36;16.80;;;11.45;;
77430;SDS011;66498;48.564;19.272;2023-03-13T08:01:11;17.40;;;12.32;;
77430;SDS011;66498;48.564;19.272;2023-03-13T08:03:51;18.77;;;11.63;;
77430;SDS011;66498;48.564;19.272;2023-03-13T08:06:19;24.52;;;14.63;;
77430;SDS011;66498;48.564;19.272;2023-03-13T08:08:49;16.23;;;11.35;;
77430;SDS011;66498;48.564;19.272;2023-03-13T08:11:20;29.05;;;23.30;;
77430;SDS011;66498;48.564;19.272;2023-03-13T08:13:52;19.00;;;13.10;;
77430;SDS011;66498;48.564;19.272;2023-03-13T08:16:22;24.02;;;18.55;;
77430;SDS011;66498;48.564;19.272;2023-03-13T08:18:51;21.90;;;14.75;;
77430;SDS011;66498;48.564;19.272;2023-03-13T08:21:19;20.23;;;12.60;;
77430;SDS011;66498;48.564;19.272;2023-03-13T08:23:47;14.60;;;9.27;;
77430;SDS011;66498;48.564;19.272;2023-03-13T08:26:15;16.13;;;10.50;;
77430;SDS011;66498;48.564;19.272;2023-03-13T08:28:44;16.20;;;11.05;;
77430;SDS011;66498;48.564;19.272;2023-03-13T08:33:44;17.88;;;11.60;;
77430;SDS011;66498;48.564;19.272;2023-03-13T08:36:12;16.95;;;10.88;;
77430;SDS011;66498;48.564;19.272;2023-03-13T08:38:38;16.00;;;10.68;;
77430;SDS011;66498;48.564;19.272;2023-03-13T08:41:15;30.70;;;11.43;;
77430;SDS011;66498;48.564;19.272;2023-03-13T08:43:42;15.50;;;10.40;;
77430;SDS011;66498;48.564;19.272;2023-03-13T08:46:08;15.27;;;10.15;;
77430;SDS011;66498;48.564;19.272;2023-03-13T08:48:36;16.85;;;11.35;;
77430;SDS011;66498;48.564;19.272;2023-03-13T08:51:02;18.70;;;11.88;;
77430;SDS011;66498;48.564;19.272;2023-03-13T08:53:35;14.57;;;10.13;;
77430;SDS011;66498;48.564;19.272;2023-03-13T08:56:03;13.32;;;9.18;;
77430;SDS011;66498;48.564;19.272;2023-03-13T08:58:29;15.32;;;8.82;;
77430;SDS011;66498;48.564;19.272;2023-03-13T09:01:06;13.65;;;8.43;;
77430;SDS011;66498;48.564;19.272;2023-03-13T09:03:33;14.30;;;10.43;;
77430;SDS011;66498;48.564;19.272;2023-03-13T09:05:59;14.48;;;9.38;;
77430;SDS011;66498;48.564;19.272;2023-03-13T09:08:26;14.20;;;8.80;;
77430;SDS011;66498;48.564;19.272;2023-03-13T09:10:56;13.95;;;9.73;;
77430;SDS011;66498;48.564;19.272;2023-03-13T09:13:24;14.48;;;9.60;;
77430;SDS011;66498;48.564;19.272;2023-03-13T09:18:20;17.45;;;10.05;;
77430;SDS011;66498;48.564;19.272;2023-03-13T09:20:45;14.85;;;9.85;;
77430;SDS011;66498;48.564;19.272;2023-03-13T09:23:11;12.77;;;9.52;;
77430;SDS011;66498;48.564;19.272;2023-03-13T09:25:37;13.13;;;9.20;;
77430;SDS011;66498;48.564;19.272;2023-03-13T09:28:03;13.93;;;8.90;;
77430;SDS011;66498;48.564;19.272;2023-03-13T09:30:29;14.25;;;9.88;;
77430;SDS011;66498;48.564;19.272;2023-03-13T09:32:56;12.90;;;9.80;;
77430;SDS011;66498;48.564;19.272;2023-03-13T09:35:21;14.77;;;9.20;;
77430;SDS011;66498;48.564;19.272;2023-03-13T09:37:46;12.70;;;9.07;;
77430;SDS011;66498;48.564;19.272;2023-03-13T09:40:13;14.75;;;10.20;;
77430;SDS011;66498;48.564;19.272;2023-03-13T09:42:47;11.52;;;8.68;;
77430;SDS011;66498;48.564;19.272;2023-03-13T09:48:06;14.15;;;9.68;;
77430;SDS011;66498;48.564;19.272;2023-03-13T09:50:45;14.57;;;10.02;;
77430;SDS011;66498;48.564;19.272;2023-03-13T09:53:19;15.88;;;9.95;;
77430;SDS011;66498;48.564;19.272;2023-03-13T09:55:55;12.15;;;9.18;;
77430;SDS011;66498;48.564;19.272;2023-03-13T09:58:22;12.30;;;9.30;;
77430;SDS011;66498;48.564;19.272;2023-03-13T10:01:02;16.10;;;10.43;;
77430;SDS011;66498;48.564;19.272;2023-03-13T10:03:30;15.65;;;10.88;;
77430;SDS011;66498;48.564;19.272;2023-03-13T10:06:13;12.63;;;9.38;;
77430;SDS011;66498;48.564;19.272;2023-03-13T10:08:43;13.68;;;9.27;;
77430;SDS011;66498;48.564;19.272;2023-03-13T10:11:10;11.57;;;8.90;;
77430;SDS011;66498;48.564;19.272;2023-03-13T10:14:05;13.20;;;8.77;;
77430;SDS011;66498;48.564;19.272;2023-03-13T10:16:48;13.30;;;9.40;;
77430;SDS011;66498;48.564;19.272;2023-03-13T10:19:27;16.58;;;9.07;;
77430;SDS011;66498;48.564;19.272;2023-03-13T10:21:56;13.43;;;8.77;;
77430;SDS011;66498;48.564;19.272;2023-03-13T10:24:32;12.60;;;9.75;;
77430;SDS011;66498;48.564;19.272;2023-03-13T10:27:20;11.77;;;8.90;;
77430;SDS011;66498;48.564;19.272;2023-03-13T10:29:46;12.95;;;9.27;;
77430;SDS011;66498;48.564;19.272;2023-03-13T10:32:13;15.50;;;10.02;;
77430;SDS011;66498;48.564;19.272;2023-03-13T10:37:14;14.23;;;8.65;;
77430;SDS011;66498;48.564;19.272;2023-03-13T10:39:41;13.27;;;9.50;;
77430;SDS011;66498;48.564;19.272;2023-03-13T10:42:10;13.20;;;9.27;;
77430;SDS011;66498;48.564;19.272;2023-03-13T10:44:41;12.52;;;8.82;;
77430;SDS011;66498;48.564;19.272;2023-03-13T10:47:08;13.30;;;9.30;;
77430;SDS011;66498;48.564;19.272;2023-03-13T10:49:45;22.25;;;17.92;;
77430;SDS011;66498;48.564;19.272;2023-03-13T10:52:29;22.48;;;18.23;;
77430;SDS011;66498;48.564;19.272;2023-03-13T10:55:02;13.32;;;9.23;;
77430;SDS011;66498;48.564;19.272;2023-03-13T10:57:32;17.15;;;9.35;;
77430;SDS011;66498;48.564;19.272;2023-03-13T10:59:59;14.85;;;9.85;;
77430;SDS011;66498;48.564;19.272;2023-03-13T11:07:57;15.40;;;9.85;;
77430;SDS011;66498;48.564;19.272;2023-03-13T11:10:24;12.68;;;9.20;;
77430;SDS011;66498;48.564;19.272;2023-03-13T11:12:53;14.75;;;9.35;;
77430;SDS011;66498;48.564;19.272;2023-03-13T11:17:46;14.13;;;8.82;;
77430;SDS011;66498;48.564;19.272;2023-03-13T11:20:35;14.40;;;8.80;;
77430;SDS011;66498;48.564;19.272;2023-03-13T11:25:39;16.80;;;9.43;;
77430;SDS011;66498;48.564;19.272;2023-03-13T11:30:47;14.25;;;8.25;;
77430;SDS011;66498;48.564;19.272;2023-03-13T11:38:43;12.70;;;8.63;;
77430;SDS011;66498;48.564;19.272;2023-03-13T11:41:32;12.40;;;8.23;;
77430;SDS011;66498;48.564;19.272;2023-03-13T11:46:50;12.32;;;8.32;;
77430;SDS011;66498;48.564;19.272;2023-03-13T11:57:28;9.35;;;6.47;;
77430;SDS011;66498;48.564;19.272;2023-03-13T12:00:30;13.48;;;9.85;;
77430;SDS011;66498;48.564;19.272;2023-03-13T12:03:03;12.52;;;8.48;;
77430;SDS011;66498;48.564;19.272;2023-03-13T12:05:42;10.85;;;6.90;;
77430;SDS011;66498;48.564;19.272;2023-03-13T12:08:20;10.25;;;7.05;;
77430;SDS011;66498;48.564;19.272;2023-03-13T12:13:37;9.50;;;6.50;;
77430;SDS011;66498;48.564;19.272;2023-03-13T12:16:10;9.88;;;5.90;;
77430;SDS011;66498;48.564;19.272;2023-03-13T12:18:41;7.32;;;5.78;;
77430;SDS011;66498;48.564;19.272;2023-03-13T12:21:25;9.55;;;5.80;;
77430;SDS011;66498;48.564;19.272;2023-03-13T12:26:37;12.90;;;8.98;;
77430;SDS011;66498;48.564;19.272;2023-03-13T12:32:08;12.00;;;8.85;;
77430;SDS011;66498;48.564;19.272;2023-03-13T12:37:30;9.73;;;7.22;;
77430;SDS011;66498;48.564;19.272;2023-03-13T12:42:50;10.30;;;7.70;;
77430;SDS011;66498;48.564;19.272;2023-03-13T12:45:21;12.43;;;9.23;;
77430;SDS011;66498;48.564;19.272;2023-03-13T12:50:29;12.27;;;9.10;;
77430;SDS011;66498;48.564;19.272;2023-03-13T12:58:49;11.23;;;8.25;;
77430;SDS011;66498;48.564;19.272;2023-03-13T13:01:40;11.50;;;7.60;;
77430;SDS011;66498;48.564;19.272;2023-03-13T13:04:13;16.65;;;8.25;;
77430;SDS011;66498;48.564;19.272;2023-03-13T13:09:31;12.65;;;8.25;;
77430;SDS011;66498;48.564;19.272;2023-03-13T13:30:00;8.93;;;5.38;;
77430;SDS011;66498;48.564;19.272;2023-03-13T13:32:53;9.85;;;6.25;;
77430;SDS011;66498;48.564;19.272;2023-03-13T13:35:39;8.48;;;5.93;;
77430;SDS011;66498;48.564;19.272;2023-03-13T13:40:59;10.00;;;6.20;;
77430;SDS011;66498;48.564;19.272;2023-03-13T13:43:31;12.00;;;5.70;;
77430;SDS011;66498;48.564;19.272;2023-03-13T13:46:46;10.20;;;6.05;;
77430;SDS011;66498;48.564;19.272;2023-03-13T13:49:34;7.43;;;5.70;;
77430;SDS011;66498;48.564;19.272;2023-03-13T13:57:19;12.63;;;5.95;;
77430;SDS011;66498;48.564;19.272;2023-03-13T13:59:50;8.82;;;5.40;;
77430;SDS011;66498;48.564;19.272;2023-03-13T14:02:24;10.25;;;6.10;;
77430;SDS011;66498;48.564;19.272;2023-03-13T14:05:00;8.52;;;5.40;;
77430;SDS011;66498;48.564;19.272;2023-03-13T14:12:58;10.88;;;6.13;;
77430;SDS011;66498;48.564;19.272;2023-03-13T14:15:26;8.30;;;5.63;;
77430;SDS011;66498;48.564;19.272;2023-03-13T14:20:37;8.57;;;5.85;;
77430;SDS011;66498;48.564;19.272;2023-03-13T14:23:05;9.65;;;6.47;;
77430;SDS011;66498;48.564;19.272;2023-03-13T14:25:46;9.38;;;5.60;;
77430;SDS011;66498;48.564;19.272;2023-03-13T14:28:20;10.40;;;6.30;;
77430;SDS011;66498;48.564;19.272;2023-03-13T14:30:52;8.55;;;6.00;;
77430;SDS011;66498;48.564;19.272;2023-03-13T14:33:19;12.43;;;7.07;;
77430;SDS011;66498;48.564;19.272;2023-03-13T14:35:45;9.25;;;6.25;;
77430;SDS011;66498;48.564;19.272;2023-03-13T14:38:22;8.82;;;6.35;;
77430;SDS011;66498;48.564;19.272;2023-03-13T14:40:49;9.38;;;6.20;;
77430;SDS011;66498;48.564;19.272;2023-03-13T14:43:36;7.20;;;5.10;;
77430;SDS011;66498;48.564;19.272;2023-03-13T14:46:13;12.35;;;5.65;;
77430;SDS011;66498;48.564;19.272;2023-03-13T14:48:46;8.85;;;5.10;;
77430;SDS011;66498;48.564;19.272;2023-03-13T14:51:20;11.20;;;5.40;;
77430;SDS011;66498;48.564;19.272;2023-03-13T14:53:55;8.15;;;5.38;;
77430;SDS011;66498;48.564;19.272;2023-03-13T14:56:29;10.88;;;5.13;;
77430;SDS011;66498;48.564;19.272;2023-03-13T14:59:04;6.85;;;4.97;;
77430;SDS011;66498;48.564;19.272;2023-03-13T15:01:31;9.27;;;6.10;;
77430;SDS011;66498;48.564;19.272;2023-03-13T15:03:58;7.72;;;5.47;;
77430;SDS011;66498;48.564;19.272;2023-03-13T15:06:24;11.02;;;6.35;;
77430;SDS011;66498;48.564;19.272;2023-03-13T15:09:12;10.95;;;6.13;;
77430;SDS011;66498;48.564;19.272;2023-03-13T15:11:41;10.50;;;7.25;;
77430;SDS011;66498;48.564;19.272;2023-03-13T15:17:02;13.32;;;7.50;;
77430;SDS011;66498;48.564;19.272;2023-03-13T15:19:29;12.35;;;7.20;;
77430;SDS011;66498;48.564;19.272;2023-03-13T15:21:56;12.18;;;7.60;;
77430;SDS011;66498;48.564;19.272;2023-03-13T15:24:22;17.70;;;10.63;;
77430;SDS011;66498;48.564;19.272;2023-03-13T15:26:47;12.88;;;9.25;;
77430;SDS011;66498;48.564;19.272;2023-03-13T15:29:13;11.80;;;8.18;;
77430;SDS011;66498;48.564;19.272;2023-03-13T15:31:39;16.10;;;9.57;;
77430;SDS011;66498;48.564;19.272;2023-03-13T15:34:05;10.95;;;7.95;;
77430;SDS011;66498;48.564;19.272;2023-03-13T15:36:36;15.32;;;8.30;;
77430;SDS011;66498;48.564;19.272;2023-03-13T15:39:08;11.77;;;8.20;;
77430;SDS011;66498;48.564;19.272;2023-03-13T15:41:43;15.38;;;8.63;;
77430;SDS011;66498;48.564;19.272;2023-03-13T15:44:09;18.10;;;8.00;;
77430;SDS011;66498;48.564;19.272;2023-03-13T15:46:34;13.98;;;6.93;;
77430;SDS011;66498;48.564;19.272;2023-03-13T15:49:00;16.50;;;7.55;;
77430;SDS011;66498;48.564;19.272;2023-03-13T15:51:26;21.95;;;7.97;;
77430;SDS011;66498;48.564;19.272;2023-03-13T15:53:51;22.10;;;7.88;;
77430;SDS011;66498;48.564;19.272;2023-03-13T15:56:18;20.38;;;8.95;;
77430;SDS011;66498;48.564;19.272;2023-03-13T15:58:47;20.10;;;8.15;;
77430;SDS011;66498;48.564;19.272;2023-03-13T16:01:13;17.30;;;8.63;;
77430;SDS011;66498;48.564;19.272;2023-03-13T16:03:41;14.15;;;7.68;;
77430;SDS011;66498;48.564;19.272;2023-03-13T16:06:19;12.75;;;7.68;;
77430;SDS011;66498;48.564;19.272;2023-03-13T16:08:56;10.20;;;7.18;;
77430;SDS011;66498;48.564;19.272;2023-03-13T16:11:24;11.00;;;6.95;;
77430;SDS011;66498;48.564;19.272;2023-03-13T16:13:50;10.15;;;6.93;;
77430;SDS011;66498;48.564;19.272;2023-03-13T16:18:45;9.38;;;7.00;;
77430;SDS011;66498;48.564;19.272;2023-03-13T16:21:14;15.82;;;8.13;;
77430;SDS011;66498;48.564;19.272;2023-03-13T16:23:44;10.98;;;7.38;;
77430;SDS011;66498;48.564;19.272;2023-03-13T16:26:17;17.83;;;7.65;;